Main page
METAR-TAF:

METAR-TAF

Airports :

Dubai, United Arab Emirates

Dubai International Airport

latitude: 25-15-10N, longitude: 055-21-52E, elevation: 8 m

Current weather observation

The report was made 38 minutes ago, at 20:00 UTC
Wind 8 kt from the North/Northeast, varying between West/Northwest and East/Northeast
Temperature 38°C
Humidity 24%
Pressure 995 hPa
Visibility 10 km or more
no clouds below 1500 m and no cumulonimbus

METAR: OMDB 202000Z 02008KT 300V070 CAVOK 38/14 Q0995 NOSIG

Time: 00:38 (20:38 UTC)

Forecast

The report was made 3 hours and 42 minutes ago, at 16:56 UTC
Forecast valid from 20 at 18 UTC to 22 at 00 UTC
Wind 7 kt from the East
Visibility: 8000 m
Becoming
from 21 at 03 UTC to 21 at 05 UTC
Wind 10 kt from the South
Becoming
from 21 at 08 UTC to 21 at 10 UTC
Wind 12 kt from the North
Becoming
from 21 at 15 UTC to 21 at 17 UTC
Wind 5 kt from the East/Northeast

TAF: OMDB 201656Z 2018/2200 10007KT 8000 NSC BECMG 2103/2105 18010KT BECMG 2108/2110 35012KT BECMG 2115/2117 06005KT

Weather observations and forecasts of more than 4000 airports (METAR and TAF reports).

The available stations are represented by yellow and red dots on the map.

Hover mouse over dot to see the name of the station.

Then click to see weather observations and forecasts.

To change the map : click on the green buttons with a black cross to zoom in, on the green button with a dash to zoom out, or on the green arrows for adjacent maps.


METAR-TAF: